Wilson Lisbon — 5BNU3 — position and weather

sailwx.info

Track history (hours):
 
Tides and Currents Weather Stations Pressure Air Temp Water Temp Dewpoint Dewpoint Depression Visibility Wind Speed Wind Dir Waves Ship Positions

Wilson Lisbon

Last reported at 2014-Dec-21 07:28 UTC. Time now 2014-Dec-21 08:30 UTC.
Position N 59°04' E 009°39'.

Length 90 m; draft 5.7 m.

Type: Ship. MMSI: 212376000.

Date/timePositionNaut miles runAvg speedWind from/ knotsBaromVisibWave heightAir tempDewpointWater temp
2014-Dec-21 07:28N 59°04' E 009°39'4 4.1
2014-Dec-21 06:29N 59°07' E 009°37'0 0.0
2014-Dec-21 05:29N 59°07' E 009°37'0 0.0
2014-Dec-21 04:17N 59°07' E 009°37'0 0.0
2014-Dec-21 03:29N 59°07' E 009°37'0 0.0
2014-Dec-21 02:29N 59°07' E 009°37'0 0.0
2014-Dec-21 00:29N 59°07' E 009°37'0 0.0
2014-Dec-20 23:33N 59°07' E 009°37'0 0.0
2014-Dec-20 22:33N 59°07' E 009°37'0 0.0
2014-Dec-20 21:33N 59°07' E 009°37'0 0.0
2014-Dec-20 20:33N 59°07' E 009°37'0 0.0
2014-Dec-20 19:33N 59°07' E 009°37'0 0.0
2014-Dec-20 18:32N 59°07' E 009°37'0 0.0
2014-Dec-20 17:33N 59°07' E 009°37'0 0.0
2014-Dec-20 16:33N 59°07' E 009°37'0 0.0
2014-Dec-20 15:33N 59°07' E 009°37'0 0.0
2014-Dec-20 14:33N 59°07' E 009°37'0 0.0
2014-Dec-20 13:32N 59°07' E 009°37'0 0.0
2014-Dec-20 12:33N 59°07' E 009°37'0 0.0
2014-Dec-20 11:33N 59°07' E 009°37'0 0.0
2014-Dec-20 10:33N 59°07' E 009°37'0 0.0
2014-Dec-20 09:31N 59°07' E 009°37'0 0.0
2014-Dec-20 08:33N 59°07' E 009°37'0 0.2
2014-Dec-20 07:21N 59°08' E 009°37'0 0.0
2014-Dec-20 06:33N 59°08' E 009°37'0 0.0
2014-Dec-20 03:27N 59°08' E 009°37'0 0.0
2014-Dec-20 01:27N 59°08' E 009°37'0 0.0
2014-Dec-19 23:33N 59°08' E 009°37'0 0.0
2014-Dec-19 22:29N 59°08' E 009°37'0 0.0
2014-Dec-19 21:12N 59°08' E 009°37'0 0.0
2014-Dec-19 20:33N 59°08' E 009°37'0 0.0
2014-Dec-19 19:27N 59°08' E 009°37'0 0.0
2014-Dec-19 18:29N 59°08' E 009°37'0 0.0
2014-Dec-19 17:12N 59°08' E 009°37'0 0.0
2014-Dec-19 16:14N 59°08' E 009°37'2 2.9
2014-Dec-19 15:33N 59°06' E 009°38'133 4.3
2014-Dec-18 08:10N 58°00' E 005°55'  
2014-Dec-12 17:33N 67°30' E 014°01'9 8.9
2014-Dec-12 16:34N 67°30' E 014°24'9 8.5
2014-Dec-12 15:32N 67°33' E 014°45'9 8.6
2014-Dec-12 14:29N 67°35' E 015°08'11 9.3
2014-Dec-12 13:15N 67°27' E 015°30'4 4.4
2014-Dec-12 12:26N 67°24' E 015°33'0 0.0
2014-Dec-12 11:26N 67°24' E 015°33'0 0.0
2014-Dec-12 10:26N 67°24' E 015°33'0 0.0
2014-Dec-12 09:26N 67°24' E 015°33'0 0.0
2014-Dec-12 08:29N 67°24' E 015°33'0 0.0
2014-Dec-12 07:29N 67°24' E 015°33'0 0.0
2014-Dec-12 06:29N 67°24' E 015°33'0 0.0
2014-Dec-12 05:29N 67°24' E 015°33'0 0.0
2014-Dec-12 04:32N 67°24' E 015°33'0 0.0
2014-Dec-12 03:29N 67°24' E 015°33'0 0.0
2014-Dec-12 02:29N 67°24' E 015°33'0 0.0
2014-Dec-12 01:29N 67°24' E 015°33'0 0.0
2014-Dec-12 00:20N 67°24' E 015°33'0 0.0
2014-Dec-11 23:23N 67°24' E 015°33'0 0.0
2014-Dec-11 22:23N 67°24' E 015°33'0 0.0
2014-Dec-11 21:23N 67°24' E 015°33'0 0.0
2014-Dec-11 20:26N 67°24' E 015°33'0 0.0
2014-Dec-11 19:26N 67°24' E 015°33'0 0.0
2014-Dec-11 18:26N 67°24' E 015°33'0 0.0
2014-Dec-11 17:29N 67°24' E 015°33'0 0.0
2014-Dec-11 16:33N 67°24' E 015°33'20 6.7
2014-Dec-11 13:32N 67°33' E 014°46'8 8.5
2014-Dec-11 12:33N 67°31' E 014°25'9 8.9
2014-Dec-11 11:30N 67°37' E 014°08'9 9.8
2014-Dec-11 10:33N 67°46' E 014°16'  
Track history (hours):
 
Tides and Currents Weather Stations Pressure Air Temp Water Temp Dewpoint Dewpoint Depression Visibility Wind Speed Wind Dir Waves Ship Positions

Wilson Lisbon

Last reported at 2014-Dec-21 07:28 UTC. Time now 2014-Dec-21 08:30 UTC.
Position N 59°04' E 009°39'.

Length 90 m; draft 5.7 m.

Type: Ship. MMSI: 212376000.

Date/timePositionNaut miles runAvg speedWind from/ knotsBaromVisibWave heightAir tempDewpointWater temp
2014-Dec-21 07:28N 59°04' E 009°39'4 4.1
2014-Dec-21 06:29N 59°07' E 009°37'0 0.0
2014-Dec-21 05:29N 59°07' E 009°37'0 0.0
2014-Dec-21 04:17N 59°07' E 009°37'0 0.0
2014-Dec-21 03:29N 59°07' E 009°37'0 0.0
2014-Dec-21 02:29N 59°07' E 009°37'0 0.0
2014-Dec-21 00:29N 59°07' E 009°37'0 0.0
2014-Dec-20 23:33N 59°07' E 009°37'0 0.0
2014-Dec-20 22:33N 59°07' E 009°37'0 0.0
2014-Dec-20 21:33N 59°07' E 009°37'0 0.0
2014-Dec-20 20:33N 59°07' E 009°37'0 0.0
2014-Dec-20 19:33N 59°07' E 009°37'0 0.0
2014-Dec-20 18:32N 59°07' E 009°37'0 0.0
2014-Dec-20 17:33N 59°07' E 009°37'0 0.0
2014-Dec-20 16:33N 59°07' E 009°37'0 0.0
2014-Dec-20 15:33N 59°07' E 009°37'0 0.0
2014-Dec-20 14:33N 59°07' E 009°37'0 0.0
2014-Dec-20 13:32N 59°07' E 009°37'0 0.0
2014-Dec-20 12:33N 59°07' E 009°37'0 0.0
2014-Dec-20 11:33N 59°07' E 009°37'0 0.0
2014-Dec-20 10:33N 59°07' E 009°37'0 0.0
2014-Dec-20 09:31N 59°07' E 009°37'0 0.0
2014-Dec-20 08:33N 59°07' E 009°37'0 0.2
2014-Dec-20 07:21N 59°08' E 009°37'0 0.0
2014-Dec-20 06:33N 59°08' E 009°37'0 0.0
2014-Dec-20 03:27N 59°08' E 009°37'0 0.0
2014-Dec-20 01:27N 59°08' E 009°37'0 0.0
2014-Dec-19 23:33N 59°08' E 009°37'0 0.0
2014-Dec-19 22:29N 59°08' E 009°37'0 0.0
2014-Dec-19 21:12N 59°08' E 009°37'0 0.0
2014-Dec-19 20:33N 59°08' E 009°37'0 0.0
2014-Dec-19 19:27N 59°08' E 009°37'0 0.0
2014-Dec-19 18:29N 59°08' E 009°37'0 0.0
2014-Dec-19 17:12N 59°08' E 009°37'0 0.0
2014-Dec-19 16:14N 59°08' E 009°37'2 2.9
2014-Dec-19 15:33N 59°06' E 009°38'133 4.3
2014-Dec-18 08:10N 58°00' E 005°55'  
2014-Dec-12 17:33N 67°30' E 014°01'9 8.9
2014-Dec-12 16:34N 67°30' E 014°24'9 8.5
2014-Dec-12 15:32N 67°33' E 014°45'9 8.6
2014-Dec-12 14:29N 67°35' E 015°08'11 9.3
2014-Dec-12 13:15N 67°27' E 015°30'4 4.4
2014-Dec-12 12:26N 67°24' E 015°33'0 0.0
2014-Dec-12 11:26N 67°24' E 015°33'0 0.0
2014-Dec-12 10:26N 67°24' E 015°33'0 0.0
2014-Dec-12 09:26N 67°24' E 015°33'0 0.0
2014-Dec-12 08:29N 67°24' E 015°33'0 0.0
2014-Dec-12 07:29N 67°24' E 015°33'0 0.0
2014-Dec-12 06:29N 67°24' E 015°33'0 0.0
2014-Dec-12 05:29N 67°24' E 015°33'0 0.0
2014-Dec-12 04:32N 67°24' E 015°33'0 0.0
2014-Dec-12 03:29N 67°24' E 015°33'0 0.0
2014-Dec-12 02:29N 67°24' E 015°33'0 0.0
2014-Dec-12 01:29N 67°24' E 015°33'0 0.0
2014-Dec-12 00:20N 67°24' E 015°33'0 0.0
2014-Dec-11 23:23N 67°24' E 015°33'0 0.0
2014-Dec-11 22:23N 67°24' E 015°33'0 0.0
2014-Dec-11 21:23N 67°24' E 015°33'0 0.0
2014-Dec-11 20:26N 67°24' E 015°33'0 0.0
2014-Dec-11 19:26N 67°24' E 015°33'0 0.0
2014-Dec-11 18:26N 67°24' E 015°33'0 0.0
2014-Dec-11 17:29N 67°24' E 015°33'0 0.0
2014-Dec-11 16:33N 67°24' E 015°33'20 6.7
2014-Dec-11 13:32N 67°33' E 014°46'8 8.5
2014-Dec-11 12:33N 67°31' E 014°25'9 8.9
2014-Dec-11 11:30N 67°37' E 014°08'9 9.8
2014-Dec-11 10:33N 67°46' E 014°16'  

Dump ship's entire track history